Time;durP1;ratioP1;P1;durP2;ratioP2;P2;SDS_P1;SDS_P2;PMS_P1;PMS_P2;Temp;Humidity;BMP_temperature;BMP_pressure;BME280_temperature;BME280_humidity;BME280_pressure;Samples;Min_cycle;Max_cycle;Signal;HPM_P1;HPM_P2
2022/03/15 00:02:52;;;;;;;7.80;4.72;;;15.30;62.10;;;;;;6125869;28;20040;-67
2022/03/15 00:05:53;;;;;;;10.85;5.53;;;15.30;61.90;;;;;;6103419;29;20036;-67
2022/03/15 00:08:54;;;;;;;11.30;5.53;;;15.30;61.80;;;;;;6126233;28;20040;-68
2022/03/15 00:11:55;;;;;;;9.85;5.43;;;15.20;61.70;;;;;;6104927;29;20039;-68
2022/03/15 00:14:56;;;;;;;12.32;4.97;;;15.20;61.70;;;;;;6125457;28;20039;-68
2022/03/15 00:17:57;;;;;;;7.72;4.38;;;15.20;61.60;;;;;;6125353;28;20043;-67
2022/03/15 00:20:59;;;;;;;7.93;5.05;;;15.20;61.60;;;;;;6123702;28;20125;-67
2022/03/15 00:24:00;;;;;;;9.27;4.65;;;15.20;61.70;;;;;;6125383;28;20461;-68
2022/03/15 00:27:03;;;;;;;8.82;4.40;;;15.20;61.60;;;;;;6124108;28;20036;-68
2022/03/15 00:30:06;;;;;;;9.82;4.63;;;15.20;61.50;;;;;;6108695;28;20046;-68
2022/03/15 00:33:08;;;;;;;7.60;4.40;;;15.30;61.60;;;;;;6122269;28;20035;-68
2022/03/15 00:36:09;;;;;;;10.57;5.32;;;15.30;61.40;;;;;;6124803;28;20071;-67
2022/03/15 00:39:10;;;;;;;9.18;4.78;;;15.20;61.40;;;;;;6125763;28;20048;-67
2022/03/15 00:42:11;;;;;;;7.75;4.45;;;15.20;61.30;;;;;;6124563;28;20082;-68
2022/03/15 00:45:12;;;;;;;7.75;3.97;;;15.20;61.20;;;;;;6124673;28;20111;-67
2022/03/15 00:48:13;;;;;;;11.02;4.82;;;15.30;61.20;;;;;;6105904;28;20080;-67
2022/03/15 00:51:14;;;;;;;9.05;4.70;;;15.30;61.00;;;;;;6125988;28;20468;-68
2022/03/15 00:54:15;;;;;;;7.53;4.32;;;15.30;61.00;;;;;;6098896;29;20108;-67
2022/03/15 00:57:16;;;;;;;8.40;4.80;;;15.30;60.90;;;;;;6124591;28;20043;-67
2022/03/15 01:00:18;;;;;;;10.02;5.40;;;15.40;60.80;;;;;;6119649;28;20106;-67
2022/03/15 01:03:20;;;;;;;10.13;4.68;;;15.40;60.60;;;;;;6123813;28;20103;-68
2022/03/15 01:06:21;;;;;;;8.88;4.70;;;15.40;60.60;;;;;;6124382;28;20063;-68
2022/03/15 01:09:22;;;;;;;9.70;5.32;;;15.40;60.50;;;;;;6124632;28;20047;-69
2022/03/15 01:12:24;;;;;;;10.52;4.97;;;15.40;60.40;;;;;;6108701;28;20046;-67
2022/03/15 01:15:25;;;;;;;8.63;5.07;;;15.40;60.40;;;;;;6124437;28;20395;-67
2022/03/15 01:18:26;;;;;;;10.00;5.75;;;15.40;60.40;;;;;;6118841;28;20066;-66
2022/03/15 01:21:28;;;;;;;8.52;4.88;;;15.40;60.40;;;;;;6124232;28;20047;-67
2022/03/15 01:24:29;;;;;;;10.13;5.32;;;15.40;60.60;;;;;;6126217;28;20047;-68
2022/03/15 01:27:29;;;;;;;8.18;4.90;;;15.40;60.70;;;;;;6122170;28;20126;-67
2022/03/15 01:30:30;;;;;;;9.15;5.22;;;15.40;60.70;;;;;;6111038;28;20088;-68
2022/03/15 01:33:32;;;;;;;7.00;4.43;;;15.30;60.70;;;;;;6127045;28;20045;-68
2022/03/15 01:36:34;;;;;;;9.23;4.97;;;15.30;60.90;;;;;;6126372;28;20492;-67
2022/03/15 01:39:36;;;;;;;14.25;5.65;;;15.20;60.90;;;;;;6129885;28;20043;-68
2022/03/15 01:42:38;;;;;;;9.32;4.43;;;15.20;61.00;;;;;;6129947;28;20047;-68
2022/03/15 01:45:40;;;;;;;11.73;4.72;;;15.20;61.20;;;;;;6130696;28;20057;-68
2022/03/15 01:48:41;;;;;;;12.23;5.25;;;15.20;61.20;;;;;;6127878;28;20418;-68
2022/03/15 01:51:45;;;;;;;9.88;4.97;;;15.20;61.00;;;;;;6130011;28;20064;-68
2022/03/15 01:54:46;;;;;;;11.93;4.97;;;15.20;61.00;;;;;;6111995;28;20468;-68
2022/03/15 01:57:49;;;;;;;13.88;5.07;;;15.20;61.10;;;;;;6130433;29;20102;-67
2022/03/15 02:00:52;;;;;;;9.52;4.85;;;15.20;61.30;;;;;;6130517;29;20139;-68
2022/03/15 02:03:52;;;;;;;9.57;4.97;;;15.20;61.40;;;;;;6127420;29;20465;-68
2022/03/15 02:07:21;;;;;;;11.75;4.82;;;15.20;61.40;;;;;;6126818;28;20036;-68
2022/03/15 02:10:22;;;;;;;9.05;4.72;;;15.20;61.50;;;;;;6122641;28;20130;-67
2022/03/15 02:13:23;;;;;;;11.00;4.95;;;15.10;61.40;;;;;;6127909;28;20048;-70
2022/03/15 02:16:25;;;;;;;7.82;4.53;;;15.20;61.50;;;;;;6122548;28;20031;-68
2022/03/15 02:19:27;;;;;;;9.82;5.00;;;15.10;61.50;;;;;;6106213;28;20489;-68
2022/03/15 02:22:28;;;;;;;9.07;5.25;;;15.20;61.50;;;;;;6128652;28;20148;-69
2022/03/15 02:25:40;;;;;;;9.05;4.60;;;15.20;61.40;;;;;;6127542;28;20326;-69
2022/03/15 02:28:40;;;;;;;11.30;4.85;;;15.20;61.50;;;;;;6126195;28;20098;-68
2022/03/15 02:31:42;;;;;;;8.52;4.65;;;15.20;61.40;;;;;;6124022;28;20369;-68
2022/03/15 02:34:42;;;;;;;10.63;4.88;;;15.20;61.30;;;;;;6127847;28;20122;-68
2022/03/15 02:37:45;;;;;;;13.48;5.00;;;15.30;61.30;;;;;;6127451;28;20051;-67
2022/03/15 02:40:46;;;;;;;9.15;4.50;;;15.20;61.20;;;;;;6127081;28;20055;-68
2022/03/15 02:43:46;;;;;;;8.10;4.57;;;15.20;61.20;;;;;;6127979;28;20079;-68
2022/03/15 02:46:50;;;;;;;10.25;4.93;;;15.20;61.20;;;;;;6127864;28;20032;-67
2022/03/15 02:49:52;;;;;;;9.68;4.57;;;15.20;61.10;;;;;;6126291;28;20044;-68
2022/03/15 02:52:52;;;;;;;10.73;4.90;;;15.20;61.10;;;;;;6127212;28;20036;-68
2022/03/15 02:55:53;;;;;;;8.55;4.68;;;15.20;61.20;;;;;;6126868;28;20035;-67
2022/03/15 02:58:54;;;;;;;8.30;4.90;;;15.20;61.30;;;;;;6126991;28;20365;-67
2022/03/15 03:01:56;;;;;;;10.43;5.32;;;15.20;61.30;;;;;;6125675;28;20040;-69
2022/03/15 03:04:58;;;;;;;10.20;5.38;;;15.20;61.20;;;;;;6126231;28;20039;-69
2022/03/15 03:08:01;;;;;;;9.10;4.95;;;15.20;61.20;;;;;;6124493;28;20058;-67
2022/03/15 03:11:02;;;;;;;13.68;5.47;;;15.20;61.20;;;;;;6110973;28;20050;-69
2022/03/15 03:14:04;;;;;;;13.32;5.30;;;15.20;61.10;;;;;;6126790;28;20118;-68
2022/03/15 03:17:08;;;;;;;10.55;5.30;;;15.20;61.00;;;;;;6126780;28;20055;-67
2022/03/15 03:20:12;;;;;;;8.15;5.15;;;15.30;61.20;;;;;;6125436;28;20059;-67
2022/03/15 03:23:14;;;;;;;13.90;4.90;;;15.30;61.30;;;;;;6127865;28;20040;-67
2022/03/15 03:26:15;;;;;;;15.35;5.55;;;15.30;61.30;;;;;;6126089;28;20115;-67
2022/03/15 03:29:16;;;;;;;8.07;4.60;;;15.30;61.30;;;;;;6122144;28;20459;-67
2022/03/15 03:32:17;;;;;;;11.60;4.72;;;15.30;61.20;;;;;;6107542;28;20480;-67
2022/03/15 03:35:18;;;;;;;9.18;4.70;;;15.30;61.00;;;;;;6125595;28;20040;-68
2022/03/15 03:38:19;;;;;;;7.03;4.45;;;15.30;61.00;;;;;;6126248;28;20039;-67
2022/03/15 03:41:20;;;;;;;9.15;4.55;;;15.20;61.10;;;;;;6126152;28;20173;-68
2022/03/15 03:44:21;;;;;;;9.02;4.10;;;15.20;61.30;;;;;;6126943;28;20043;-68
2022/03/15 03:47:22;;;;;;;8.02;4.45;;;15.20;61.40;;;;;;6124877;28;20062;-67
2022/03/15 03:50:23;;;;;;;8.40;4.57;;;15.20;61.20;;;;;;6122512;28;20083;-67
2022/03/15 03:53:24;;;;;;;9.25;4.50;;;15.20;61.00;;;;;;6125773;28;20031;-67
2022/03/15 03:56:25;;;;;;;8.27;4.57;;;15.20;61.00;;;;;;6125577;28;20043;-67
2022/03/15 03:59:26;;;;;;;6.63;4.22;;;15.20;61.00;;;;;;6110251;28;20043;-68
2022/03/15 04:02:26;;;;;;;11.45;4.78;;;15.20;61.00;;;;;;6099654;28;20039;-68
2022/03/15 04:05:33;;;;;;;7.35;4.57;;;15.20;60.90;;;;;;6125246;28;20039;-67
2022/03/15 04:08:34;;;;;;;10.80;4.90;;;15.20;60.90;;;;;;6124672;28;20043;-67
2022/03/15 04:11:40;;;;;;;12.85;4.70;;;15.20;60.90;;;;;;6124972;28;20038;-67
2022/03/15 04:14:40;;;;;;;8.55;4.78;;;15.20;60.90;;;;;;6125265;28;20039;-67
2022/03/15 04:17:41;;;;;;;8.73;4.65;;;15.20;60.80;;;;;;6119758;28;20087;-68
2022/03/15 04:20:42;;;;;;;9.40;4.90;;;15.20;60.80;;;;;;6126397;28;20482;-68
2022/03/15 04:23:43;;;;;;;7.97;4.50;;;15.20;60.80;;;;;;6126443;28;20475;-68
2022/03/15 04:26:46;;;;;;;8.98;4.85;;;15.20;60.80;;;;;;6124228;28;20123;-68
2022/03/15 04:29:47;;;;;;;8.05;4.65;;;15.20;60.70;;;;;;6126257;28;20043;-68
2022/03/15 04:32:48;;;;;;;9.60;4.88;;;15.30;60.70;;;;;;6125838;28;20032;-68
2022/03/15 04:35:49;;;;;;;8.60;4.47;;;15.10;60.60;;;;;;6107264;29;20109;-67
2022/03/15 04:38:49;;;;;;;11.02;5.00;;;15.10;60.80;;;;;;6124647;28;20040;-67
2022/03/15 04:41:51;;;;;;;11.70;5.18;;;15.00;60.70;;;;;;6125937;28;20068;-67
2022/03/15 04:44:52;;;;;;;7.93;4.43;;;15.00;60.90;;;;;;6124195;28;20487;-68
2022/03/15 04:47:53;;;;;;;14.43;5.07;;;15.00;61.00;;;;;;6123516;28;20099;-68
2022/03/15 04:50:54;;;;;;;10.38;5.57;;;15.00;61.10;;;;;;6122247;28;20032;-67
2022/03/15 04:53:55;;;;;;;9.57;5.45;;;14.90;61.10;;;;;;6126878;28;20043;-68
2022/03/15 04:56:56;;;;;;;13.00;5.50;;;14.90;61.10;;;;;;6124751;28;20035;-67
2022/03/15 04:59:58;;;;;;;11.23;4.93;;;14.90;60.60;;;;;;6125875;28;20103;-68
2022/03/15 05:02:59;;;;;;;9.35;5.00;;;14.90;61.10;;;;;;6125042;28;20413;-67
2022/03/15 05:06:00;;;;;;;11.20;5.00;;;14.80;61.20;;;;;;6125849;28;20035;-67
2022/03/15 05:09:01;;;;;;;10.00;5.10;;;14.80;61.10;;;;;;6125169;28;20056;-68
2022/03/15 05:12:02;;;;;;;10.48;5.28;;;14.80;61.20;;;;;;6125132;28;20039;-68
2022/03/15 05:15:03;;;;;;;10.32;5.70;;;14.70;61.30;;;;;;6109461;28;20433;-67
2022/03/15 05:18:04;;;;;;;10.27;5.53;;;14.70;61.40;;;;;;6124394;28;20032;-69
2022/03/15 05:21:05;;;;;;;11.43;5.15;;;14.70;62.40;;;;;;6125569;28;20082;-67
2022/03/15 05:24:08;;;;;;;12.18;5.25;;;14.70;61.70;;;;;;6126400;28;20483;-68
2022/03/15 05:27:10;;;;;;;9.52;5.30;;;14.70;61.60;;;;;;6098463;28;20370;-68
2022/03/15 05:30:11;;;;;;;9.63;5.55;;;14.70;61.60;;;;;;6117932;28;20528;-68
2022/03/15 05:33:12;;;;;;;10.90;5.28;;;14.70;61.60;;;;;;6118927;28;20028;-67
2022/03/15 05:36:16;;;;;;;19.30;5.20;;;14.80;61.60;;;;;;6105716;29;20032;-68
2022/03/15 05:39:17;;;;;;;8.30;4.63;;;14.80;61.40;;;;;;6107561;28;20036;-68
2022/03/15 05:42:18;;;;;;;8.88;4.88;;;14.80;61.50;;;;;;6119392;28;20051;-67
2022/03/15 05:45:19;;;;;;;9.63;5.63;;;14.80;62.30;;;;;;6122877;28;20110;-67
2022/03/15 05:48:21;;;;;;;10.07;5.38;;;14.80;61.30;;;;;;6119862;28;20075;-67
2022/03/15 05:51:22;;;;;;;12.07;5.00;;;14.80;61.30;;;;;;6123219;28;20035;-68
2022/03/15 05:54:23;;;;;;;11.15;5.25;;;14.90;61.40;;;;;;6116905;28;20039;-67
2022/03/15 05:57:23;;;;;;;8.27;4.70;;;14.80;61.40;;;;;;6122349;28;20040;-67
2022/03/15 06:00:26;;;;;;;12.40;5.72;;;14.80;61.30;;;;;;6125046;28;20039;-67
2022/03/15 06:03:27;;;;;;;14.95;5.65;;;14.70;61.30;;;;;;6124618;28;20036;-68
2022/03/15 06:06:27;;;;;;;13.98;4.95;;;14.70;61.60;;;;;;6126090;28;20388;-69
2022/03/15 06:09:29;;;;;;;16.95;5.63;;;14.70;61.60;;;;;;6118337;28;20076;-68
2022/03/15 06:12:29;;;;;;;9.13;5.18;;;14.70;62.50;;;;;;6123480;28;20035;-68
2022/03/15 06:15:30;;;;;;;9.68;4.75;;;14.70;61.80;;;;;;6143277;28;20047;-68
2022/03/15 06:18:31;;;;;;;10.68;5.50;;;14.70;61.70;;;;;;6124798;28;20051;-67
2022/03/15 06:21:32;;;;;;;9.80;5.45;;;14.70;61.70;;;;;;6129361;28;20049;-68
2022/03/15 06:24:34;;;;;;;10.68;5.53;;;14.70;61.70;;;;;;6128708;28;20040;-67
2022/03/15 06:27:36;;;;;;;15.68;5.30;;;14.80;61.70;;;;;;6125330;28;20373;-67
2022/03/15 06:30:37;;;;;;;19.13;5.53;;;14.80;61.60;;;;;;6129101;28;20539;-68
2022/03/15 06:33:39;;;;;;;17.55;5.05;;;14.80;61.60;;;;;;6122398;28;20107;-68
2022/03/15 06:36:41;;;;;;;13.07;5.28;;;14.80;61.50;;;;;;6127520;28;20051;-68
2022/03/15 06:39:44;;;;;;;13.13;4.90;;;14.80;61.40;;;;;;6127693;28;20376;-67
2022/03/15 06:42:45;;;;;;;11.82;5.63;;;14.80;61.40;;;;;;6130276;28;20362;-68
2022/03/15 06:45:46;;;;;;;9.23;4.95;;;14.80;61.30;;;;;;6107477;29;20036;-66
2022/03/15 06:48:47;;;;;;;14.75;5.95;;;14.90;61.20;;;;;;6119695;28;20040;-67
2022/03/15 06:51:48;;;;;;;10.13;5.47;;;15.00;61.10;;;;;;6110947;29;20060;-69
2022/03/15 06:54:49;;;;;;;12.48;5.10;;;15.00;60.90;;;;;;6124491;28;20151;-68
2022/03/15 06:57:51;;;;;;;9.88;5.53;;;15.00;60.70;;;;;;6126509;28;20067;-67
2022/03/15 07:00:55;;;;;;;9.52;4.93;;;15.00;60.60;;;;;;6127336;29;20126;-67
2022/03/15 07:03:55;;;;;;;11.40;4.35;;;15.10;60.60;;;;;;6129601;28;20043;-68
2022/03/15 07:06:56;;;;;;;8.63;5.03;;;15.10;60.40;;;;;;6128432;29;20122;-69
2022/03/15 07:09:57;;;;;;;9.77;5.20;;;15.10;60.20;;;;;;6129804;28;20427;-68
2022/03/15 07:12:59;;;;;;;11.40;5.57;;;15.00;60.30;;;;;;6128983;28;20036;-68
2022/03/15 07:16:00;;;;;;;8.55;4.72;;;15.00;60.50;;;;;;6129641;28;20036;-67
2022/03/15 07:19:01;;;;;;;8.75;4.95;;;15.00;60.50;;;;;;6122337;29;20119;-67
2022/03/15 07:22:02;;;;;;;8.90;5.55;;;15.00;60.40;;;;;;6128425;28;20529;-68
2022/03/15 07:25:03;;;;;;;10.20;5.50;;;14.90;60.50;;;;;;6127785;29;20031;-68
2022/03/15 07:28:04;;;;;;;8.23;5.47;;;14.90;60.60;;;;;;6128734;28;20036;-67
2022/03/15 07:31:05;;;;;;;9.65;5.13;;;15.00;60.70;;;;;;6129033;28;20054;-67
2022/03/15 07:34:06;;;;;;;12.23;5.45;;;15.00;60.60;;;;;;6127164;29;20043;-67
2022/03/15 07:37:07;;;;;;;8.27;5.05;;;15.10;60.60;;;;;;6127669;28;20043;-67
2022/03/15 07:40:09;;;;;;;11.02;5.43;;;15.10;60.50;;;;;;6127662;28;20074;-68
2022/03/15 07:43:10;;;;;;;9.70;4.90;;;15.10;60.40;;;;;;6111657;29;20060;-68
2022/03/15 07:46:11;;;;;;;13.38;5.88;;;15.10;60.40;;;;;;6127506;29;20032;-68
2022/03/15 07:49:12;;;;;;;12.63;5.88;;;15.10;60.50;;;;;;6122617;28;20066;-68
2022/03/15 07:52:13;;;;;;;10.57;5.70;;;15.10;60.40;;;;;;6107820;29;20050;-68
2022/03/15 07:55:14;;;;;;;14.98;5.72;;;15.20;60.30;;;;;;6127082;29;20055;-69
2022/03/15 07:58:15;;;;;;;19.08;6.40;;;15.20;60.20;;;;;;6127104;29;20108;-68
2022/03/15 08:01:16;;;;;;;16.98;6.10;;;15.30;60.10;;;;;;6126541;29;20465;-68
2022/03/15 08:04:17;;;;;;;16.38;7.40;;;15.30;60.00;;;;;;6126996;29;20380;-69
2022/03/15 08:07:18;;;;;;;10.02;6.53;;;15.40;59.90;;;;;;6127374;29;20051;-67
2022/03/15 08:10:19;;;;;;;9.32;5.20;;;15.40;59.60;;;;;;6128365;28;20047;-67
2022/03/15 08:13:20;;;;;;;14.18;5.53;;;15.50;59.60;;;;;;6111620;29;20194;-67
2022/03/15 08:16:22;;;;;;;12.40;6.13;;;15.50;59.40;;;;;;6128109;28;20031;-67
2022/03/15 08:19:23;;;;;;;12.02;5.00;;;15.60;59.30;;;;;;6110576;29;20035;-68
2022/03/15 08:22:25;;;;;;;16.20;6.30;;;15.60;59.10;;;;;;6127214;29;20366;-68
2022/03/15 08:25:29;;;;;;;11.38;5.85;;;15.60;58.90;;;;;;6127438;29;20420;-68
2022/03/15 08:28:31;;;;;;;15.80;5.93;;;15.70;59.00;;;;;;6127765;28;20040;-68
2022/03/15 08:31:32;;;;;;;13.50;5.90;;;15.60;58.90;;;;;;6127738;28;20127;-69
2022/03/15 08:34:34;;;;;;;13.80;5.85;;;15.70;58.90;;;;;;6126043;29;20107;-68
2022/03/15 08:37:36;;;;;;;9.35;5.50;;;15.70;59.00;;;;;;6111170;29;20115;-68
2022/03/15 08:40:37;;;;;;;9.68;6.00;;;15.80;58.90;;;;;;6127950;28;20449;-68
2022/03/15 08:43:38;;;;;;;15.23;5.57;;;15.80;58.90;;;;;;6111095;29;20043;-67
2022/03/15 08:46:39;;;;;;;21.02;6.50;;;15.80;58.80;;;;;;6126851;29;20397;-67
2022/03/15 08:49:44;;;;;;;10.75;5.22;;;15.90;58.80;;;;;;6125553;28;20358;-67
2022/03/15 08:52:47;;;;;;;13.05;6.13;;;16.00;58.80;;;;;;6126334;29;20036;-67
2022/03/15 08:55:48;;;;;;;12.50;6.32;;;16.10;58.50;;;;;;6127647;28;20326;-68
2022/03/15 08:58:49;;;;;;;11.75;5.45;;;16.20;58.10;;;;;;6126605;29;20102;-68
2022/03/15 09:01:50;;;;;;;10.07;5.38;;;16.20;58.00;;;;;;6118130;28;20421;-68
2022/03/15 09:04:52;;;;;;;9.73;4.47;;;16.10;57.90;;;;;;6106584;29;20132;-68
2022/03/15 09:07:53;;;;;;;14.57;5.47;;;16.10;57.90;;;;;;6125790;29;20068;-69
2022/03/15 09:10:54;;;;;;;12.98;4.93;;;16.00;57.90;;;;;;6107157;29;20039;-68
2022/03/15 09:13:56;;;;;;;24.58;5.22;;;15.90;58.10;;;;;;6104573;29;20054;-67
2022/03/15 09:16:57;;;;;;;11.57;5.82;;;16.00;58.10;;;;;;6126591;28;20039;-68
2022/03/15 09:19:58;;;;;;;14.25;5.78;;;15.90;58.10;;;;;;6125369;29;20044;-67
2022/03/15 09:22:59;;;;;;;14.15;5.30;;;15.90;58.40;;;;;;6125686;29;20114;-67
2022/03/15 09:26:00;;;;;;;10.90;5.05;;;15.90;58.80;;;;;;6120928;28;20385;-66
2022/03/15 09:29:02;;;;;;;17.17;5.40;;;16.00;58.20;;;;;;6126967;28;20039;-68
2022/03/15 09:32:04;;;;;;;10.00;5.03;;;16.00;58.10;;;;;;6124867;29;20087;-68
2022/03/15 09:35:06;;;;;;;12.98;5.38;;;16.00;58.20;;;;;;6126214;28;20060;-68
2022/03/15 09:38:07;;;;;;;9.45;5.05;;;16.00;58.10;;;;;;6125363;29;20032;-68
2022/03/15 09:41:08;;;;;;;13.20;5.65;;;16.00;58.20;;;;;;6124407;29;20087;-67
2022/03/15 09:44:10;;;;;;;16.08;5.22;;;16.10;58.20;;;;;;6125108;29;20051;-67
2022/03/15 09:47:15;;;;;;;10.07;5.05;;;16.10;58.20;;;;;;6112923;29;20077;-67
2022/03/15 09:50:16;;;;;;;13.32;6.80;;;16.20;58.10;;;;;;6128075;28;20042;-67
2022/03/15 09:53:18;;;;;;;14.75;5.90;;;16.20;58.10;;;;;;6114316;29;20115;-67
2022/03/15 09:56:19;;;;;;;17.33;7.47;;;16.20;58.00;;;;;;6128804;29;20038;-68
2022/03/15 09:59:22;;;;;;;14.52;6.25;;;16.20;58.00;;;;;;6128761;29;20063;-67
2022/03/15 10:02:24;;;;;;;9.38;5.45;;;16.30;57.90;;;;;;6129226;29;20048;-67
2022/03/15 10:05:25;;;;;;;10.48;4.90;;;16.40;57.90;;;;;;6127134;28;20040;-67
2022/03/15 10:08:27;;;;;;;9.50;4.65;;;16.50;57.70;;;;;;6128908;28;20135;-67
2022/03/15 10:11:28;;;;;;;9.85;4.88;;;16.60;57.50;;;;;;6127720;29;20050;-68
2022/03/15 10:14:46;;;;;;;9.00;4.40;;;16.80;57.40;;;;;;6129716;29;20040;-68
2022/03/15 10:17:55;;;;;;;12.60;5.85;;;17.00;57.20;;;;;;6111463;28;20048;-68
2022/03/15 10:20:56;;;;;;;12.60;4.63;;;17.10;56.80;;;;;;6112440;28;20059;-68
2022/03/15 10:23:58;;;;;;;15.50;5.32;;;17.20;56.40;;;;;;6125158;28;20272;-68
2022/03/15 10:27:02;;;;;;;10.50;4.80;;;17.30;56.00;;;;;;6127267;28;20172;-68
2022/03/15 10:30:04;;;;;;;18.60;5.28;;;17.40;55.90;;;;;;6129168;28;20118;-68
2022/03/15 10:33:08;;;;;;;8.20;4.47;;;17.50;55.70;;;;;;6126124;28;20557;-68
2022/03/15 10:36:17;;;;;;;15.50;5.82;;;17.50;55.50;;;;;;6127617;28;20044;-67
2022/03/15 10:39:19;;;;;;;14.80;5.00;;;17.60;55.20;;;;;;6127530;28;20031;-67
2022/03/15 10:42:23;;;;;;;12.43;5.30;;;17.70;55.00;;;;;;6125101;28;20106;-68
2022/03/15 10:45:24;;;;;;;12.63;5.85;;;17.80;54.80;;;;;;6127560;28;20047;-67
2022/03/15 10:48:32;;;;;;;12.43;5.15;;;17.90;54.50;;;;;;6126008;28;20058;-67
2022/03/15 10:51:33;;;;;;;9.55;5.07;;;18.00;54.10;;;;;;6111806;28;20035;-67
2022/03/15 10:54:35;;;;;;;17.17;5.38;;;17.90;54.00;;;;;;6127462;28;20083;-67
2022/03/15 10:57:54;;;;;;;11.48;5.53;;;18.00;54.00;;;;;;6126820;28;20444;-68
2022/03/15 11:00:55;;;;;;;12.52;5.78;;;18.00;53.80;;;;;;6126168;28;20079;-68
2022/03/15 11:03:59;;;;;;;11.82;5.00;;;18.10;53.60;;;;;;6126450;28;20354;-69
2022/03/15 11:07:00;;;;;;;12.57;5.90;;;18.30;53.50;;;;;;6125626;28;20107;-68
2022/03/15 11:10:14;;;;;;;14.18;5.07;;;18.30;53.30;;;;;;6120386;28;20040;-68
2022/03/15 11:13:17;;;;;;;15.38;5.03;;;18.40;53.10;;;;;;6126917;28;20374;-68
2022/03/15 11:16:18;;;;;;;15.65;4.38;;;18.60;52.90;;;;;;6125280;28;20047;-69
2022/03/15 11:19:19;;;;;;;6.93;4.55;;;18.70;52.70;;;;;;6124421;28;20028;-68
2022/03/15 11:22:23;;;;;;;13.13;4.30;;;18.80;52.50;;;;;;6124945;28;20095;-68
2022/03/15 11:25:26;;;;;;;7.22;3.95;;;19.10;52.30;;;;;;6125630;28;20398;-69
2022/03/15 11:28:30;;;;;;;6.97;4.43;;;19.30;51.70;;;;;;6125608;28;20028;-69
2022/03/15 11:31:33;;;;;;;9.50;4.13;;;19.50;51.40;;;;;;6124462;28;20031;-68
2022/03/15 11:34:35;;;;;;;5.65;3.42;;;19.60;50.80;;;;;;6125803;28;20118;-67
2022/03/15 11:37:38;;;;;;;11.90;3.65;;;19.80;50.50;;;;;;6126447;28;20262;-69
2022/03/15 11:40:40;;;;;;;8.30;3.47;;;20.10;50.30;;;;;;6126422;28;20039;-69
2022/03/15 11:43:54;;;;;;;9.57;3.40;;;20.30;49.70;;;;;;6124217;28;20035;-69
2022/03/15 11:47:20;;;;;;;8.88;3.40;;;20.50;49.20;;;;;;6118854;28;20123;-68
2022/03/15 11:51:02;;;;;;;6.75;3.42;;;20.60;48.60;;;;;;6122317;28;20380;-67
2022/03/15 11:54:32;;;;;;;7.45;4.40;;;20.70;48.30;;;;;;6057506;29;20122;-67
2022/03/15 11:57:49;;;;;;;9.97;4.70;;;20.70;47.50;;;;;;6053798;29;20051;-68
2022/03/15 12:00:50;;;;;;;10.35;4.35;;;20.70;47.80;;;;;;6057185;29;20040;-67
2022/03/15 12:03:54;;;;;;;7.03;3.63;;;20.90;47.80;;;;;;6073074;29;20029;-68
2022/03/15 12:07:01;;;;;;;7.53;2.75;;;21.10;47.60;;;;;;6059439;29;20116;-69
2022/03/15 12:10:07;;;;;;;7.85;3.42;;;21.40;47.20;;;;;;6056231;29;20036;-67
2022/03/15 12:13:09;;;;;;;7.03;2.92;;;21.70;46.60;;;;;;6069611;29;20051;-67
2022/03/15 12:16:19;;;;;;;8.75;3.35;;;21.90;46.10;;;;;;6060075;29;20041;-67
2022/03/15 12:19:38;;;;;;;5.75;2.47;;;22.00;45.20;;;;;;6036777;29;20451;-68
2022/03/15 12:22:39;;;;;;;5.85;2.33;;;22.00;45.00;;;;;;6071155;29;20048;-69
2022/03/15 12:25:43;;;;;;;13.52;2.42;;;22.10;44.40;;;;;;6058736;29;20112;-67
2022/03/15 12:28:55;;;;;;;6.70;3.42;;;22.10;44.20;;;;;;6044957;29;20064;-68
2022/03/15 12:32:08;;;;;;;7.65;2.17;;;22.30;43.80;;;;;;6119061;28;20036;-67
2022/03/15 12:35:11;;;;;;;6.00;2.20;;;22.40;43.30;;;;;;6123681;28;20131;-68
2022/03/15 12:38:12;;;;;;;5.00;1.98;;;22.50;42.20;;;;;;6121192;28;20044;-68
2022/03/15 12:41:24;;;;;;;9.20;2.28;;;22.50;42.20;;;;;;6124364;28;20103;-68
2022/03/15 12:44:52;;;;;;;5.25;1.90;;;22.60;41.30;;;;;;6124008;28;20362;-68
2022/03/15 12:48:06;;;;;;;6.97;2.20;;;22.70;41.30;;;;;;6115069;28;20130;-69
2022/03/15 12:51:17;;;;;;;6.28;2.60;;;22.70;41.10;;;;;;6121511;28;20040;-68
2022/03/15 12:54:17;;;;;;;6.38;2.40;;;22.70;41.20;;;;;;6122127;28;20418;-67
2022/03/15 12:57:20;;;;;;;6.60;2.20;;;22.90;41.00;;;;;;6122933;28;20043;-67
2022/03/15 13:00:24;;;;;;;5.65;2.20;;;23.20;40.30;;;;;;6121213;28;20143;-68
2022/03/15 13:03:26;;;;;;;8.88;2.00;;;23.50;39.60;;;;;;6121271;28;20051;-71
2022/03/15 13:06:27;;;;;;;4.45;2.00;;;23.50;39.10;;;;;;6123708;28;20536;-68
2022/03/15 13:09:28;;;;;;;4.15;1.70;;;23.50;38.90;;;;;;6122344;28;20535;-69
2022/03/15 13:12:33;;;;;;;6.05;1.40;;;23.40;37.80;;;;;;6128983;28;20036;-69
2022/03/15 13:15:36;;;;;;;5.20;1.58;;;23.60;38.00;;;;;;6122477;28;20131;-67
2022/03/15 13:18:41;;;;;;;5.18;1.55;;;23.90;37.40;;;;;;6115360;28;20043;-69
2022/03/15 13:21:42;;;;;;;5.80;1.38;;;24.20;36.20;;;;;;6124584;28;20047;-68
2022/03/15 13:24:43;;;;;;;13.27;1.83;;;24.50;35.20;;;;;;6124956;28;20059;-68
2022/03/15 13:27:44;;;;;;;7.65;1.40;;;24.80;34.60;;;;;;6125528;28;20047;-68
2022/03/15 13:30:46;;;;;;;10.75;1.30;;;25.00;32.90;;;;;;6125060;28;20050;-69
2022/03/15 13:33:56;;;;;;;3.25;1.30;;;25.20;31.00;;;;;;6127186;28;20047;-69
2022/03/15 13:37:07;;;;;;;6.93;1.58;;;25.30;30.80;;;;;;6127360;28;20036;-68
2022/03/15 13:40:11;;;;;;;9.70;1.48;;;25.40;30.80;;;;;;6127039;28;20043;-69
2022/03/15 13:43:18;;;;;;;10.88;1.30;;;25.60;31.30;;;;;;6127055;28;20461;-68
2022/03/15 13:46:20;;;;;;;5.07;1.20;;;25.70;31.30;;;;;;6128722;28;20066;-69
2022/03/15 13:49:29;;;;;;;10.10;1.63;;;25.80;30.90;;;;;;6125820;28;20381;-69
2022/03/15 13:52:33;;;;;;;3.83;1.33;;;25.80;30.00;;;;;;6122688;28;20035;-68
2022/03/15 13:55:35;;;;;;;5.97;1.38;;;25.90;29.70;;;;;;6110320;28;20027;-68
2022/03/15 13:58:36;;;;;;;9.10;2.05;;;26.00;29.70;;;;;;6126961;28;20039;-68
2022/03/15 14:01:42;;;;;;;8.80;1.75;;;26.00;29.30;;;;;;6109403;28;20044;-69
2022/03/15 14:04:43;;;;;;;10.15;1.27;;;26.00;28.80;;;;;;6110166;28;20039;-69
2022/03/15 14:07:45;;;;;;;3.55;1.30;;;26.10;28.50;;;;;;6124523;28;20472;-70
2022/03/15 14:10:47;;;;;;;10.63;2.22;;;26.10;28.50;;;;;;6127133;28;20031;-68
2022/03/15 14:14:05;;;;;;;10.52;1.48;;;26.10;27.70;;;;;;6109537;28;20063;-68
2022/03/15 14:17:07;;;;;;;9.55;1.63;;;26.00;27.40;;;;;;6125160;28;20476;-68
2022/03/15 14:20:13;;;;;;;5.07;1.45;;;26.00;27.80;;;;;;6119714;28;20032;-68
2022/03/15 14:23:14;;;;;;;13.10;1.90;;;25.90;28.00;;;;;;6119902;28;20042;-69
2022/03/15 14:26:28;;;;;;;6.25;2.60;;;25.80;28.60;;;;;;6128307;28;20101;-68
2022/03/15 14:29:32;;;;;;;10.27;2.75;;;25.70;29.30;;;;;;6117606;28;20039;-69
2022/03/15 14:32:33;;;;;;;11.35;2.17;;;25.50;29.90;;;;;;6140232;28;20034;-68
2022/03/15 14:35:38;;;;;;;6.32;2.20;;;25.40;30.30;;;;;;6125693;28;20099;-68
2022/03/15 14:38:41;;;;;;;7.80;2.78;;;25.10;31.00;;;;;;6122122;28;20036;-68
2022/03/15 14:41:43;;;;;;;7.20;2.53;;;24.70;31.80;;;;;;6124574;28;20488;-68
2022/03/15 14:44:45;;;;;;;5.05;2.60;;;24.50;32.50;;;;;;6126161;28;20036;-68
2022/03/15 14:47:46;;;;;;;7.03;2.40;;;24.20;33.00;;;;;;6120029;28;20040;-69
2022/03/15 14:50:47;;;;;;;4.68;2.33;;;24.00;33.70;;;;;;6125440;28;20046;-69
2022/03/15 14:53:49;;;;;;;10.10;2.60;;;23.80;34.10;;;;;;6122757;28;20051;-68
2022/03/15 14:56:50;;;;;;;6.45;2.72;;;23.60;34.30;;;;;;6124401;28;20039;-69
2022/03/15 14:59:54;;;;;;;18.95;3.00;;;23.60;35.10;;;;;;6105869;28;20050;-69
2022/03/15 15:02:56;;;;;;;8.75;2.80;;;23.40;34.80;;;;;;6114476;28;20410;-69
2022/03/15 15:05:59;;;;;;;5.40;2.75;;;23.30;35.10;;;;;;6118562;28;20365;-69
2022/03/15 15:09:01;;;;;;;15.23;2.80;;;23.10;35.20;;;;;;6120284;28;20052;-69
2022/03/15 15:12:06;;;;;;;11.20;2.08;;;22.90;35.30;;;;;;6119254;28;20457;-69
2022/03/15 15:15:11;;;;;;;7.88;2.20;;;22.80;35.40;;;;;;6121880;28;20434;-69
2022/03/15 15:18:13;;;;;;;10.25;2.53;;;22.80;35.30;;;;;;6115831;28;20422;-67
2022/03/15 15:21:13;;;;;;;6.45;2.38;;;22.70;35.40;;;;;;6121306;28;20097;-68
2022/03/15 15:24:16;;;;;;;9.25;2.30;;;22.70;35.50;;;;;;6117775;28;20044;-68
2022/03/15 15:27:17;;;;;;;9.60;2.38;;;22.60;35.80;;;;;;6120935;28;20365;-67
2022/03/15 15:30:21;;;;;;;4.15;2.25;;;22.50;35.50;;;;;;6119884;28;20040;-69
2022/03/15 15:33:22;;;;;;;8.82;2.30;;;22.40;35.60;;;;;;6096690;28;20032;-70
2022/03/15 15:36:23;;;;;;;5.10;2.17;;;22.30;35.70;;;;;;6139542;28;20044;-68
2022/03/15 15:39:31;;;;;;;10.60;2.25;;;22.30;35.80;;;;;;6134002;28;20059;-68
2022/03/15 15:42:32;;;;;;;10.45;2.08;;;22.20;36.00;;;;;;6122137;28;20043;-68
2022/03/15 15:45:33;;;;;;;8.90;2.25;;;22.30;36.10;;;;;;6115861;28;20454;-68
2022/03/15 15:48:35;;;;;;;5.13;2.42;;;22.20;36.10;;;;;;6117311;28;20048;-68